Flight Track Log - Related Links

Times and Time Zones

All times are in EDT time to prevent confusion due to time zone crossing. See the SWA2975 flight status page for this flight to view local times or setup timezone preferences in your user account.

Time Position Orientation Groundspeed Altitude Reporting Facility
EDT Latitude Longitude Course Direction KTS MPH feet Rate Location/Type
Tue 04:27:19 PM 39.8650 -104.6800 289° West 20 23  Level FlightAware ADS-B
Tue 04:27:29 PM 39.8650 -104.6810 270° West 21 24 1,233 Level FlightAware ADS-B
Tue 04:27:55 PM 39.8630 -104.6840 229° Southwest 21 24 1,277 Level FlightAware ADS-B
Tue 04:28:13 PM 39.8610 -104.6840 180° South 24 28 1,406 Level FlightAware ADS-B
Tue 04:28:27 PM 39.8600 -104.6840 180° South 26 30 1,513 Level FlightAware ADS-B
Tue 04:28:57 PM 39.8560 -104.6840 180° South 28 32 1,607 Level FlightAware ADS-B
Tue 04:29:24 PM 39.8520 -104.6840 180° South 29 33 1,856 Level FlightAware ADS-B
Tue 04:29:49 PM 39.8490 -104.6840 180° South 33 38 2,156 Level FlightAware ADS-B
Tue 04:32:00 PM 39.8768 -104.9474 276° West  Level FlightAware Approximate
Tue 04:32:11 PM 39.8410 -104.7280 276° West 183 211 6,000  Level FlightAware ADS-B
Tue 04:32:41 PM 39.8440 -104.7620 277° West 200 230 6,900 1,759 Climbing FlightAware ADS-B
Tue 04:33:09 PM 39.8580 -104.7930 300° West 228 262 7,700 1,607 Climbing FlightAware ADS-B
Tue 04:33:37 PM 39.8750 -104.8280 302° West 267 307 8,400 1,650 Climbing FlightAware ADS-B
Tue 04:33:49 PM 39.8810 -104.8480 291° West 282 325 8,800 2,571 Climbing FlightAware ADS-B
Tue 04:34:33 PM 39.8740 -104.9240 263° West 302 348 10,800 2,747 Climbing FlightAware ADS-B
Tue 04:35:12 PM 39.8650 -104.9930 260° West 306 352 12,600 3,200 Climbing FlightAware ADS-B
Tue 04:35:48 PM 39.8670 -105.0580 272° West 300 345 14,800 3,310 Climbing FlightAware ADS-B
Tue 04:36:39 PM 39.8830 -105.1490 283° West 306 352 17,400 2,835 Climbing FlightAware ADS-B
Tue 04:37:19 PM 39.8960 -105.2230 283° West 316 364 19,100 2,000 Climbing FlightAware ADS-B
Tue 04:38:03 PM 39.9100 -105.3060 282° West 342 394 20,200 1,116 Climbing FlightAware ADS-B
Tue 04:38:45 PM 39.9260 -105.3940 283° West 383 441 20,700 1,390 Climbing FlightAware ADS-B
Tue 04:39:25 PM 39.9410 -105.4860 282° West 390 449 22,100 1,829 Climbing FlightAware ADS-B
Tue 04:40:07 PM 39.9580 -105.5840 283° West 404 465 23,200 1,744 Climbing FlightAware ADS-B
Tue 04:40:51 PM 39.9730 -105.6910 280° West 413 475 24,600 1,814 Climbing FlightAware ADS-B
Tue 04:41:33 PM 39.9720 -105.7950 269° West 418 481 25,800 1,683 Climbing FlightAware ADS-B
Tue 04:42:13 PM 39.9730 -105.8960 271° West 424 488 26,900 1,610 Climbing FlightAware ADS-B
Tue 04:42:55 PM 39.9790 -106.0040 274° West 433 498 28,000 1,395 Climbing FlightAware ADS-B
Tue 04:43:39 PM 39.9850 -106.1190 274° West 442 509 28,900 1,429 Climbing FlightAware ADS-B
Tue 04:44:19 PM 39.9910 -106.2270 274° West 441 507 30,000 1,683 Climbing FlightAware ADS-B
Tue 04:45:01 PM 39.9970 -106.3350 274° West 437 503 31,200 1,674 Climbing FlightAware ADS-B
Tue 04:45:45 PM 40.0030 -106.4510 274° West 434 499 32,400 1,650 Climbing FlightAware ADS-B
Tue 04:46:21 PM 40.0080 -106.5460 274° West 429 494 33,400 1,610 Climbing FlightAware ADS-B
Tue 04:47:07 PM 40.0130 -106.6630 273° West 426 490 34,600 1,364 Climbing FlightAware ADS-B
Tue 04:47:49 PM 40.0190 -106.7700 274° West 426 490 35,400 966 Climbing FlightAware ADS-B
Tue 04:48:34 PM 40.0240 -106.8800 273° West 426 490 36,000 419 Climbing FlightAware ADS-B
Tue 04:49:15 PM 40.0290 -106.9900 273° West 425 489 36,000  Level FlightAware ADS-B
Tue 04:49:55 PM 40.0330 -107.0920 273° West 423 487 36,000  Level FlightAware ADS-B
Tue 04:50:37 PM 40.0380 -107.1990 274° West 420 483 36,000  Level FlightAware ADS-B
Tue 04:51:19 PM 40.0420 -107.3010 273° West 417 480 36,000  Level FlightAware ADS-B
Tue 04:52:00 PM 40.0470 -107.4050 274° West 416 479 36,000  Level FlightAware ADS-B
Tue 04:52:40 PM 40.0510 -107.5050 273° West 415 478 36,000  Level FlightAware ADS-B
Tue 04:53:28 PM 40.0560 -107.6250 273° West 415 478 36,000  Level FlightAware ADS-B
Tue 04:54:06 PM 40.0600 -107.7190 273° West 414 476 36,000  Level FlightAware ADS-B
Tue 04:54:47 PM 40.0640 -107.8230 273° West 414 476 36,000  Level FlightAware ADS-B
Tue 04:55:27 PM 40.0670 -107.9240 272° West 414 476 36,000  Level FlightAware ADS-B
Tue 04:56:14 PM 40.0730 -108.0400 274° West 414 476 36,000  Level FlightAware ADS-B
Tue 04:56:49 PM 40.0770 -108.1260 274° West 413 475 36,000  Level FlightAware ADS-B
Tue 04:57:38 PM 40.0820 -108.2460 273° West 412 474 36,000  Level FlightAware ADS-B
Tue 04:58:18 PM 40.0860 -108.3470 273° West 413 475 36,000  Level FlightAware ADS-B
Tue 04:59:00 PM 40.0910 -108.4450 274° West 412 474 36,000  Level FlightAware ADS-B
Tue 04:59:41 PM 40.0950 -108.5540 273° West 413 475 36,000  Level FlightAware ADS-B
Tue 05:01:14 PM 40.1040 -108.7860 273° West 413 475 36,000  Level FlightAware ADS-B
Tue 05:01:54 PM 40.1080 -108.8840 273° West 415 478 36,000  Level FlightAware ADS-B
Tue 05:02:40 PM 40.1120 -109.0000 273° West 415 478 36,000  Level FlightAware ADS-B
Tue 05:03:20 PM 40.1160 -109.0990 273° West 416 479 36,000  Level FlightAware ADS-B
Tue 05:04:00 PM 40.1200 -109.2010 273° West 415 478 36,000  Level FlightAware ADS-B
Tue 05:04:39 PM 40.1220 -109.2840 272° West 415 478 36,000  Level FlightAware ADS-B
Tue 05:05:27 PM 40.1250 -109.3870 272° West 415 478 36,000 -1,097 Level FlightAware ADS-B
Tue 05:06:12 PM 40.1310 -109.5300 273° West 415 478 34,300 -1,000 Descending FlightAware ADS-B
Tue 05:07:51 PM 40.1380 -109.7500 272° West 413 475 33,600 -316 Descending FlightAware ADS-B
Tue 05:08:25 PM 40.1390 -109.8230 271° West 413 475 33,600  Level FlightAware ADS-B
Tue 05:09:04 PM 40.1420 -109.9050 273° West 413 475 33,600  Level FlightAware ADS-B
Tue 05:09:52 PM 40.1440 -110.0070 272° West 413 475 33,600  Level FlightAware ADS-B
Tue 05:10:52 PM 40.1480 -110.1350 272° West 413 475 33,600  Level FlightAware ADS-B
Tue 05:11:26 PM 40.1500 -110.2070 272° West 413 475 33,600  Level FlightAware ADS-B
Tue 05:12:14 PM 40.1520 -110.3090 272° West 413 475 33,600  Level FlightAware ADS-B
Tue 05:12:52 PM 40.1540 -110.3890 272° West 413 475 33,600  Level FlightAware ADS-B
Tue 05:13:40 PM 40.1570 -110.4910 272° West 413 475 33,600  Level FlightAware ADS-B
Tue 05:14:14 PM 40.1590 -110.5640 272° West 413 475 33,600 -5,310 Level FlightAware ADS-B
Tue 05:15:07 PM 40.1414 -110.8553 272° West 396 456 25,900 -5,165 Descending Salt Lake Center
Tue 05:16:09 PM 40.1414 -110.9939 270° West 381 438 23,700 -1,460 Descending Salt Lake Center
Tue 05:22:02 PM 40.1880 -111.6940 270° West 299 344 15,800 -1,358 Descending FlightAware ADS-B
Tue 05:22:51 PM 40.2350 -111.7580 314° West 299 344 14,600 -1,500 Descending FlightAware ADS-B
Tue 05:23:54 PM 40.2970 -111.8370 316° Northwest 299 344 13,000 -1,714 Descending FlightAware ADS-B
Tue 05:24:36 PM 40.3440 -111.8810 324° Northwest 299 344 11,600 -2,430 Descending FlightAware ADS-B
Tue 05:25:13 PM 40.3910 -111.8990 344° North 296 341 9,800 -2,095 Descending FlightAware ADS-B
Tue 05:25:39 PM 40.4260 -111.9120 344° North 265 305 9,400 -414 Descending FlightAware ADS-B
Tue 05:26:40 PM 40.4960 -111.9370 345° North 260 299 9,200 -583 Descending FlightAware ADS-B
Tue 05:27:22 PM 40.5470 -111.9470 352° North 263 303 8,400 -1,217 Descending FlightAware ADS-B
Tue 05:27:49 PM 40.5790 -111.9510 355° North 261 300 7,800 -1,358 Descending FlightAware ADS-B
Tue 05:28:15 PM 40.6110 -111.9540 356° North 250 288 7,200 -1,345 Descending FlightAware ADS-B
Tue 05:28:47 PM 40.6470 -111.9580 355° North 225 259 6,500 -1,200 Descending FlightAware ADS-B
Tue 05:29:15 PM 40.6740 -111.9620 354° North 213 245 6,000 -1,038 Descending FlightAware ADS-B
Tue 05:29:39 PM 40.6970 -111.9640 356° North 193 222 5,600 -941 Descending FlightAware ADS-B
Tue 05:30:06 PM 40.7190 -111.9670 354° North 180 207 5,200 -655 Descending FlightAware ADS-B
Tue 05:31:38 PM 40.7870 -111.9750 355° North 167 192 4,300 -587 Descending FlightAware ADS-B
Tue 05:39:00 PM 40.7833 -111.9667 North  Level FlightAware Approximate

Login

Don't have an account? Register now (free) for customized features, flight alerts, and more!